createdAt,value
2018-04-29T00:01:52.495Z,94.20
2018-04-29T00:04:19.141Z,94.20
2018-04-29T00:06:46.039Z,94.40
2018-04-29T00:09:12.859Z,94.50
2018-04-29T00:11:40.540Z,94.70
2018-04-29T00:14:07.192Z,94.80
2018-04-29T00:16:33.863Z,94.80
2018-04-29T00:19:01.995Z,94.90
2018-04-29T00:21:28.933Z,95.00
2018-04-29T00:23:55.571Z,94.90
2018-04-29T00:26:22.240Z,95.00
2018-04-29T00:28:48.943Z,95.00
2018-04-29T00:31:15.657Z,95.10
2018-04-29T00:33:43.451Z,95.20
2018-04-29T00:36:10.106Z,95.20
2018-04-29T00:38:36.809Z,95.30
2018-04-29T00:41:04.346Z,95.50
2018-04-29T00:43:31.745Z,95.60
2018-04-29T00:45:58.471Z,95.60
2018-04-29T00:48:25.152Z,95.60
2018-04-29T00:50:51.823Z,95.70
2018-04-29T00:53:18.538Z,95.80
2018-04-29T00:55:45.259Z,95.90
2018-04-29T00:58:11.963Z,95.80
2018-04-29T01:00:38.704Z,95.80
2018-04-29T01:03:05.481Z,95.90
2018-04-29T01:05:33.027Z,96.00
2018-04-29T01:07:59.691Z,96.00
2018-04-29T01:10:26.402Z,96.10
2018-04-29T01:12:53.170Z,96.30
2018-04-29T01:15:20.603Z,96.60
2018-04-29T01:17:47.430Z,96.60
2018-04-29T01:20:14.169Z,96.60
2018-04-29T01:22:40.884Z,96.60
2018-04-29T01:25:08.341Z,96.50
2018-04-29T01:27:35.107Z,96.60
2018-04-29T01:30:01.881Z,96.60
2018-04-29T01:32:29.342Z,96.60
2018-04-29T01:34:56.052Z,96.60
2018-04-29T01:37:22.731Z,96.70
2018-04-29T01:39:49.479Z,96.60
2018-04-29T01:42:16.117Z,96.80
2018-04-29T01:44:43.517Z,96.90
2018-04-29T01:47:10.201Z,97.00
2018-04-29T01:49:36.892Z,97.00
2018-04-29T01:52:03.534Z,97.00
2018-04-29T01:54:30.159Z,97.00
2018-04-29T01:56:57.561Z,97.40
2018-04-29T01:59:24.219Z,97.40
2018-04-29T02:01:50.998Z,97.50
2018-04-29T02:04:17.647Z,97.70
2018-04-29T02:06:44.288Z,97.70
2018-04-29T02:09:11.223Z,97.90
2018-04-29T02:11:37.942Z,98.00
2018-04-29T02:14:05.042Z,98.00
2018-04-29T02:16:31.672Z,98.20
2018-04-29T02:18:58.326Z,98.20
2018-04-29T02:21:25.311Z,98.30
2018-04-29T02:23:52.072Z,98.30
2018-04-29T02:26:18.686Z,98.50
2018-04-29T02:28:45.360Z,98.60
2018-04-29T02:31:12.006Z,98.60
2018-04-29T02:33:38.650Z,98.90
2018-04-29T02:36:05.439Z,98.90
2018-04-29T02:38:32.122Z,98.90
2018-04-29T02:40:58.834Z,99.20
2018-04-29T02:43:25.539Z,99.40
2018-04-29T02:45:52.939Z,99.90
2018-04-29T02:48:19.665Z,99.90
2018-04-29T02:50:46.303Z,99.90
2018-04-29T02:53:13.035Z,99.90
2018-04-29T02:55:40.430Z,99.90
2018-04-29T02:58:07.145Z,99.90
2018-04-29T03:00:33.837Z,99.90
2018-04-29T03:03:00.507Z,99.90
2018-04-29T03:05:27.177Z,99.90
2018-04-29T03:07:53.855Z,99.90
2018-04-29T03:10:20.561Z,99.90
2018-04-29T03:12:47.206Z,99.90
2018-04-29T03:15:13.911Z,99.90
2018-04-29T03:17:40.567Z,99.90
2018-04-29T03:20:07.207Z,99.90
2018-04-29T03:22:33.870Z,99.90
2018-04-29T03:25:00.904Z,99.90
2018-04-29T03:27:27.563Z,99.90
2018-04-29T03:29:54.938Z,99.90
2018-04-29T03:32:22.352Z,99.90
2018-04-29T03:34:49.045Z,99.90
2018-04-29T03:37:16.417Z,99.90
2018-04-29T03:39:43.042Z,99.90
2018-04-29T03:42:09.767Z,99.90
2018-04-29T03:44:37.150Z,99.90
2018-04-29T03:47:04.018Z,99.90
2018-04-29T03:49:30.642Z,99.90
2018-04-29T03:51:57.342Z,99.90
2018-04-29T03:54:25.139Z,99.90
2018-04-29T03:56:51.893Z,99.90
2018-04-29T03:59:30.747Z,99.90
2018-04-29T04:02:10.309Z,99.90
2018-04-29T04:04:36.923Z,99.90
2018-04-29T04:07:03.678Z,99.90
2018-04-29T04:09:30.363Z,99.90
2018-04-29T04:11:57.068Z,99.90
2018-04-29T04:14:24.146Z,99.90
2018-04-29T04:16:50.791Z,99.90
2018-04-29T04:19:17.490Z,99.90
2018-04-29T04:21:44.177Z,99.90
2018-04-29T04:24:10.840Z,99.90
2018-04-29T04:26:39.010Z,99.90
2018-04-29T04:29:05.784Z,99.90
2018-04-29T04:31:33.226Z,99.90
2018-04-29T04:33:59.853Z,99.90
2018-04-29T04:36:26.495Z,99.90
2018-04-29T04:38:53.149Z,99.90
2018-04-29T04:41:20.547Z,99.90
2018-04-29T04:43:47.242Z,99.90
2018-04-29T04:46:14.628Z,99.90
2018-04-29T04:48:41.439Z,99.90
2018-04-29T04:51:08.103Z,99.90
2018-04-29T04:53:34.974Z,99.90
2018-04-29T04:56:01.676Z,99.90
2018-04-29T04:58:28.317Z,99.90
2018-04-29T05:00:54.966Z,99.90
2018-04-29T05:03:21.589Z,99.90
2018-04-29T05:05:48.274Z,99.90
2018-04-29T05:08:14.978Z,99.90
2018-04-29T05:10:41.702Z,99.90
2018-04-29T05:13:08.517Z,99.90
2018-04-29T05:15:35.170Z,99.90
2018-04-29T05:18:02.626Z,99.90
2018-04-29T05:20:30.045Z,99.90
2018-04-29T05:22:56.726Z,99.90
2018-04-29T05:25:24.091Z,99.90
2018-04-29T05:27:51.564Z,99.90
2018-04-29T05:30:18.215Z,99.90
2018-04-29T05:32:44.890Z,99.90
2018-04-29T05:35:11.528Z,99.90
2018-04-29T05:37:38.168Z,99.90
2018-04-29T05:40:04.846Z,99.90
2018-04-29T05:42:31.509Z,99.90
2018-04-29T05:44:58.191Z,99.40
2018-04-29T05:47:24.841Z,98.60
2018-04-29T05:49:52.315Z,97.30
2018-04-29T05:52:19.678Z,96.20
2018-04-29T05:54:46.362Z,96.10
2018-04-29T05:57:13.043Z,95.80
2018-04-29T05:59:39.768Z,95.30
2018-04-29T06:02:06.453Z,94.40
2018-04-29T06:04:33.079Z,93.90
2018-04-29T06:07:00.663Z,93.10
2018-04-29T06:09:27.294Z,92.40
2018-04-29T06:11:53.973Z,92.10
2018-04-29T06:14:21.387Z,91.20
2018-04-29T06:16:48.209Z,91.20
2018-04-29T06:19:14.870Z,91.00
2018-04-29T06:21:41.524Z,90.40
2018-04-29T06:24:08.330Z,89.40
2018-04-29T06:26:35.000Z,88.60
2018-04-29T06:29:02.428Z,87.50
2018-04-29T06:31:29.087Z,87.30
2018-04-29T06:33:56.105Z,87.00
2018-04-29T06:36:22.745Z,86.10
2018-04-29T06:38:49.410Z,86.00
2018-04-29T06:41:16.047Z,85.20
2018-04-29T06:43:42.682Z,85.40
2018-04-29T06:46:09.383Z,85.20
2018-04-29T06:48:36.139Z,84.90
2018-04-29T06:51:02.786Z,84.20
2018-04-29T06:53:29.531Z,83.00
2018-04-29T06:55:56.879Z,81.00
2018-04-29T06:58:23.975Z,80.80
2018-04-29T07:00:50.664Z,79.20
2018-04-29T07:03:17.258Z,77.50
2018-04-29T07:05:44.686Z,75.60
2018-04-29T07:08:11.354Z,75.40
2018-04-29T07:10:38.000Z,75.10
2018-04-29T07:13:05.476Z,71.80
2018-04-29T07:15:32.127Z,71.40
2018-04-29T07:17:58.816Z,71.40
2018-04-29T07:20:25.523Z,71.00
2018-04-29T07:22:52.294Z,70.50
2018-04-29T07:25:18.949Z,70.00
2018-04-29T07:27:45.841Z,69.90
2018-04-29T07:30:12.439Z,69.60
2018-04-29T07:32:39.074Z,68.80
2018-04-29T07:35:06.166Z,67.70
2018-04-29T07:37:32.876Z,66.80
2018-04-29T07:39:59.583Z,66.10
2018-04-29T07:42:26.191Z,65.70
2018-04-29T07:44:52.845Z,66.30
2018-04-29T07:47:19.470Z,67.20
2018-04-29T07:49:46.116Z,67.60
2018-04-29T07:52:12.865Z,67.90
2018-04-29T07:54:40.308Z,66.10
2018-04-29T07:57:06.963Z,65.80
2018-04-29T07:59:34.388Z,64.80
2018-04-29T08:02:01.026Z,64.50
2018-04-29T08:04:27.687Z,64.00
2018-04-29T08:06:54.300Z,63.90
2018-04-29T08:09:20.965Z,63.50
2018-04-29T08:11:47.746Z,63.10
2018-04-29T08:14:14.484Z,62.60
2018-04-29T08:16:41.225Z,61.20
2018-04-29T08:19:08.287Z,62.20
2018-04-29T08:21:34.962Z,61.40
2018-04-29T08:24:01.600Z,61.70
2018-04-29T08:26:28.280Z,61.20
2018-04-29T08:28:54.940Z,60.60
2018-04-29T08:31:21.607Z,60.20
2018-04-29T08:33:48.248Z,59.80
2018-04-29T08:36:14.949Z,59.40
2018-04-29T08:38:41.606Z,59.30
2018-04-29T08:41:08.252Z,60.30
2018-04-29T08:43:34.881Z,60.30
2018-04-29T08:46:01.576Z,60.00
2018-04-29T08:48:28.335Z,60.20
2018-04-29T08:50:54.994Z,59.70
2018-04-29T08:53:21.650Z,59.60
2018-04-29T08:55:48.343Z,58.90
2018-04-29T08:58:15.521Z,59.30
2018-04-29T09:00:42.168Z,59.10
2018-04-29T09:03:08.817Z,58.70
2018-04-29T09:05:35.952Z,58.90
2018-04-29T09:08:02.626Z,59.50
2018-04-29T09:10:29.231Z,60.00
2018-04-29T09:12:56.139Z,59.80
2018-04-29T09:15:22.766Z,60.00
2018-04-29T09:17:49.471Z,60.30
2018-04-29T09:20:16.142Z,60.70
2018-04-29T09:22:42.810Z,60.20
2018-04-29T09:25:09.453Z,59.70
2018-04-29T09:27:36.124Z,59.60
2018-04-29T09:30:02.913Z,59.10
2018-04-29T09:32:29.528Z,58.90
2018-04-29T09:34:56.911Z,58.70
2018-04-29T09:37:23.538Z,58.60
2018-04-29T09:39:50.201Z,58.90
2018-04-29T09:42:16.808Z,59.10
2018-04-29T09:44:44.444Z,59.60
2018-04-29T09:47:11.821Z,59.60
2018-04-29T09:49:38.540Z,59.50
2018-04-29T09:52:08.820Z,58.30
2018-04-29T09:54:35.532Z,57.80
2018-04-29T09:57:02.235Z,58.70
2018-04-29T09:59:29.731Z,59.40
2018-04-29T10:02:02.337Z,58.80
2018-04-29T10:04:28.988Z,58.40
2018-04-29T10:06:55.641Z,56.60
2018-04-29T10:09:22.868Z,55.70
2018-04-29T10:11:50.294Z,56.30
2018-04-29T10:14:17.030Z,56.20
2018-04-29T10:16:43.709Z,55.80
2018-04-29T10:19:10.369Z,55.80
2018-04-29T10:21:37.761Z,56.40
2018-04-29T10:24:04.403Z,56.30
2018-04-29T10:26:31.037Z,57.00
2018-04-29T10:28:57.742Z,57.10
2018-04-29T10:31:24.378Z,57.50
2018-04-29T10:33:51.938Z,56.60
2018-04-29T10:36:18.574Z,56.60
2018-04-29T10:38:45.979Z,55.90
2018-04-29T10:41:12.609Z,55.80
2018-04-29T10:43:39.236Z,56.60
2018-04-29T10:46:05.902Z,55.40
2018-04-29T10:48:32.570Z,55.60
2018-04-29T10:50:59.281Z,55.20
2018-04-29T10:53:25.918Z,54.90
2018-04-29T10:55:52.580Z,54.40
2018-04-29T10:58:19.378Z,53.40
2018-04-29T11:00:45.999Z,52.90
2018-04-29T11:03:12.706Z,53.00
2018-04-29T11:05:39.334Z,53.10
2018-04-29T11:08:07.479Z,52.80
2018-04-29T11:10:34.114Z,52.00
2018-04-29T11:13:00.754Z,53.10
2018-04-29T11:15:27.705Z,53.00
2018-04-29T11:17:54.410Z,53.50
2018-04-29T11:20:21.246Z,53.30
2018-04-29T11:22:48.723Z,52.90
2018-04-29T11:25:15.383Z,52.20
2018-04-29T11:27:42.004Z,53.90
2018-04-29T11:30:08.665Z,54.00
2018-04-29T11:32:35.283Z,53.60
2018-04-29T11:35:01.938Z,53.80
2018-04-29T11:37:28.600Z,53.10
2018-04-29T11:39:55.305Z,52.50
2018-04-29T11:42:21.978Z,52.40
2018-04-29T11:44:48.671Z,52.60
2018-04-29T11:47:15.462Z,52.80
2018-04-29T11:49:42.893Z,53.40
2018-04-29T11:52:09.550Z,52.60
2018-04-29T11:54:36.221Z,53.80
2018-04-29T11:57:02.826Z,53.00
2018-04-29T11:59:29.712Z,52.80
2018-04-29T12:01:56.504Z,53.90
2018-04-29T12:04:23.090Z,53.90
2018-04-29T12:06:49.765Z,54.10
2018-04-29T12:09:16.413Z,53.70
2018-04-29T12:11:43.086Z,53.40
2018-04-29T12:14:10.461Z,53.30
2018-04-29T12:16:37.147Z,52.90
2018-04-29T12:19:03.940Z,54.30
2018-04-29T12:21:30.680Z,54.20
2018-04-29T12:23:57.315Z,54.50
2018-04-29T12:26:24.471Z,54.50
2018-04-29T12:28:51.125Z,54.50
2018-04-29T12:31:17.757Z,55.00
2018-04-29T12:33:44.435Z,55.10
2018-04-29T12:36:11.134Z,55.00
2018-04-29T12:38:37.807Z,54.80
2018-04-29T12:41:04.510Z,55.00
2018-04-29T12:43:31.161Z,55.10
2018-04-29T12:45:57.799Z,55.60
2018-04-29T12:48:24.471Z,55.70
2018-04-29T12:50:51.970Z,55.00
2018-04-29T12:53:18.610Z,54.90
2018-04-29T12:55:45.682Z,55.30
2018-04-29T12:58:12.309Z,55.40
2018-04-29T13:00:39.032Z,55.60
2018-04-29T13:03:05.774Z,55.70
2018-04-29T13:05:32.419Z,55.90
2018-04-29T13:07:59.101Z,55.70
2018-04-29T13:10:25.750Z,55.20
2018-04-29T13:12:52.408Z,55.00
2018-04-29T13:15:20.290Z,54.60
2018-04-29T13:17:46.982Z,54.00
2018-04-29T13:20:13.594Z,54.70
2018-04-29T13:22:40.272Z,54.50
2018-04-29T13:25:07.696Z,54.30
2018-04-29T13:27:34.378Z,54.20
2018-04-29T13:30:01.815Z,54.20
2018-04-29T13:32:28.476Z,54.10
2018-04-29T13:34:56.282Z,53.40
2018-04-29T13:37:22.922Z,53.40
2018-04-29T13:39:49.530Z,53.30
2018-04-29T13:42:16.274Z,53.20
2018-04-29T13:44:42.831Z,53.40
2018-04-29T13:47:09.673Z,53.90
2018-04-29T13:49:36.293Z,53.90
2018-04-29T13:52:03.031Z,53.70
2018-04-29T13:54:29.702Z,54.20
2018-04-29T13:56:56.324Z,53.70
2018-04-29T13:59:22.972Z,53.80
2018-04-29T14:01:49.906Z,53.90
2018-04-29T14:04:16.536Z,54.50
2018-04-29T14:06:43.142Z,54.70
2018-04-29T14:09:10.590Z,55.30
2018-04-29T14:11:38.184Z,56.00
2018-04-29T14:14:04.864Z,56.70
2018-04-29T14:16:32.971Z,57.10
2018-04-29T14:19:00.388Z,57.20
2018-04-29T14:21:27.080Z,57.20
2018-04-29T14:23:53.712Z,57.40
2018-04-29T14:26:20.362Z,57.50
2018-04-29T14:28:47.087Z,57.70
2018-04-29T14:31:13.739Z,58.20
2018-04-29T14:33:40.351Z,58.90
2018-04-29T14:36:07.804Z,61.00
2018-04-29T14:38:35.162Z,61.70
2018-04-29T14:41:01.778Z,61.60
2018-04-29T14:43:28.441Z,61.60
2018-04-29T14:45:55.075Z,61.50
2018-04-29T14:48:22.146Z,62.10
2018-04-29T14:50:48.759Z,62.70
2018-04-29T14:53:16.139Z,63.20
2018-04-29T14:55:42.859Z,63.20
2018-04-29T14:58:09.485Z,64.10
2018-04-29T15:00:36.902Z,65.90
2018-04-29T15:03:03.604Z,65.90
2018-04-29T15:05:30.272Z,67.50
2018-04-29T15:07:56.906Z,69.20
2018-04-29T15:10:23.586Z,70.00
2018-04-29T15:12:50.947Z,72.10
2018-04-29T15:15:18.781Z,72.70
2018-04-29T15:17:45.462Z,72.90
2018-04-29T15:20:12.119Z,73.50
2018-04-29T15:22:38.824Z,73.60
2018-04-29T15:25:05.558Z,73.90
2018-04-29T15:27:32.999Z,73.50
2018-04-29T15:29:59.639Z,73.70
2018-04-29T15:32:27.807Z,72.90
2018-04-29T15:34:54.463Z,73.20
2018-04-29T15:37:21.140Z,73.50
2018-04-29T15:39:47.756Z,74.00
2018-04-29T15:42:14.515Z,74.70
2018-04-29T15:44:41.191Z,74.30
2018-04-29T15:47:07.880Z,74.20
2018-04-29T15:49:34.526Z,74.80
2018-04-29T15:52:01.199Z,75.90
2018-04-29T15:54:27.811Z,76.10
2018-04-29T15:56:54.550Z,76.50
2018-04-29T15:59:21.208Z,76.90
2018-04-29T16:01:47.866Z,77.50
2018-04-29T16:04:16.040Z,78.80
2018-04-29T16:06:42.802Z,79.20
2018-04-29T16:09:10.290Z,79.30
2018-04-29T16:11:36.948Z,79.30
2018-04-29T16:14:03.640Z,79.50
2018-04-29T16:16:31.165Z,79.80
2018-04-29T16:18:57.796Z,80.20
2018-04-29T16:21:24.442Z,79.90
2018-04-29T16:23:51.196Z,80.40
2018-04-29T16:26:17.838Z,81.00
2018-04-29T16:28:44.619Z,81.80
2018-04-29T16:31:11.290Z,81.90
2018-04-29T16:33:37.971Z,81.30
2018-04-29T16:36:05.369Z,80.50
2018-04-29T16:38:31.995Z,80.60
2018-04-29T16:40:58.862Z,80.60
2018-04-29T16:43:25.532Z,80.40
2018-04-29T16:45:52.169Z,80.10
2018-04-29T16:48:18.842Z,80.30
2018-04-29T16:50:45.489Z,80.50
2018-04-29T16:53:12.206Z,80.90
2018-04-29T16:55:39.591Z,81.80
2018-04-29T16:58:06.241Z,81.90
2018-04-29T17:00:32.983Z,82.50
2018-04-29T17:02:59.645Z,83.00
2018-04-29T17:05:27.077Z,83.60
2018-04-29T17:07:53.749Z,83.60
2018-04-29T17:10:20.390Z,84.20
2018-04-29T17:12:47.170Z,84.80
2018-04-29T17:15:13.909Z,85.20
2018-04-29T17:17:40.570Z,85.20
2018-04-29T17:20:07.243Z,85.50
2018-04-29T17:22:34.025Z,85.80
2018-04-29T17:25:00.674Z,85.90
2018-04-29T17:27:27.320Z,86.20
2018-04-29T17:29:53.993Z,86.40
2018-04-29T17:32:20.639Z,87.00
2018-04-29T17:34:47.518Z,87.20
2018-04-29T17:37:14.110Z,87.10
2018-04-29T17:39:40.868Z,87.00
2018-04-29T17:42:08.285Z,87.50
2018-04-29T17:44:34.991Z,87.70
2018-04-29T17:47:01.666Z,87.60
2018-04-29T17:49:28.314Z,87.70
2018-04-29T17:51:55.047Z,87.70
2018-04-29T17:54:21.678Z,87.70
2018-04-29T17:56:48.384Z,87.70
2018-04-29T17:59:15.041Z,87.60
2018-04-29T18:01:41.868Z,87.70
2018-04-29T18:04:08.502Z,88.00
2018-04-29T18:06:35.156Z,88.10
2018-04-29T18:09:01.819Z,88.60
2018-04-29T18:11:29.249Z,89.40
2018-04-29T18:13:55.921Z,89.40
2018-04-29T18:16:22.566Z,90.00
2018-04-29T18:18:50.033Z,90.50
2018-04-29T18:21:16.699Z,90.20
2018-04-29T18:23:44.064Z,90.20
2018-04-29T18:26:10.743Z,90.30
2018-04-29T18:28:37.381Z,90.50
2018-04-29T18:31:04.116Z,90.70
2018-04-29T18:33:30.735Z,90.80
2018-04-29T18:35:57.453Z,90.90
2018-04-29T18:38:24.088Z,90.90
2018-04-29T18:40:50.796Z,91.00
2018-04-29T18:43:18.284Z,91.20
2018-04-29T18:45:44.925Z,91.20
2018-04-29T18:48:11.589Z,91.30
2018-04-29T18:50:38.338Z,91.40
2018-04-29T18:53:04.901Z,91.50
2018-04-29T18:55:32.288Z,91.80
2018-04-29T18:57:58.915Z,91.80
2018-04-29T19:00:25.640Z,91.90
2018-04-29T19:02:53.059Z,92.20
2018-04-29T19:05:20.117Z,92.20
2018-04-29T19:07:46.882Z,92.20
2018-04-29T19:10:14.270Z,92.60
2018-04-29T19:12:40.954Z,92.60
2018-04-29T19:15:07.644Z,92.80
2018-04-29T19:17:34.464Z,92.90
2018-04-29T19:20:01.177Z,93.10
2018-04-29T19:22:27.834Z,93.30
2018-04-29T19:24:55.461Z,93.60
2018-04-29T19:27:22.097Z,93.60
2018-04-29T19:29:48.758Z,93.80
2018-04-29T19:32:15.484Z,93.90
2018-04-29T19:34:42.113Z,94.10
2018-04-29T19:37:08.787Z,94.40
2018-04-29T19:39:36.152Z,94.70
2018-04-29T19:42:03.023Z,94.90
2018-04-29T19:44:29.621Z,95.00
2018-04-29T19:46:56.254Z,95.10
2018-04-29T19:49:23.674Z,95.50
2018-04-29T19:51:50.303Z,95.50
2018-04-29T19:54:16.960Z,95.70
2018-04-29T19:56:43.655Z,95.80
2018-04-29T19:59:11.241Z,96.10
2018-04-29T20:01:37.870Z,96.10
2018-04-29T20:04:04.515Z,96.20
2018-04-29T20:06:31.205Z,96.30
2018-04-29T20:08:58.643Z,96.40
2018-04-29T20:11:25.402Z,96.40
2018-04-29T20:13:52.019Z,96.50
2018-04-29T20:16:18.703Z,96.50
2018-04-29T20:18:45.356Z,96.60
2018-04-29T20:21:12.018Z,96.60
2018-04-29T20:23:39.368Z,96.80
2018-04-29T20:26:06.050Z,96.80
2018-04-29T20:28:33.414Z,97.00
2018-04-29T20:31:00.833Z,97.10
2018-04-29T20:33:27.486Z,97.10
2018-04-29T20:35:54.126Z,97.10
2018-04-29T20:38:21.139Z,97.20
2018-04-29T20:40:48.663Z,97.40
2018-04-29T20:43:15.368Z,97.40
2018-04-29T20:45:41.958Z,97.40
2018-04-29T20:48:08.580Z,97.40
2018-04-29T20:50:35.164Z,97.20
2018-04-29T20:53:01.810Z,97.50
2018-04-29T20:55:28.483Z,97.60
2018-04-29T20:57:55.114Z,97.50
2018-04-29T21:00:21.764Z,97.60
2018-04-29T21:02:48.410Z,97.60
2018-04-29T21:05:14.991Z,97.60
2018-04-29T21:07:41.808Z,97.70
2018-04-29T21:10:09.198Z,97.60
2018-04-29T21:12:35.833Z,98.30
2018-04-29T21:15:02.470Z,97.50
2018-04-29T21:17:29.127Z,97.50
2018-04-29T21:19:55.869Z,97.50
2018-04-29T21:22:22.557Z,97.50
2018-04-29T21:24:49.249Z,97.50
2018-04-29T21:27:15.845Z,97.50
2018-04-29T21:29:42.528Z,97.50
2018-04-29T21:32:09.175Z,97.50
2018-04-29T21:34:35.821Z,97.60
2018-04-29T21:37:02.479Z,97.70
2018-04-29T21:39:29.069Z,97.80
2018-04-29T21:41:55.635Z,97.70
2018-04-29T21:44:22.639Z,97.70
2018-04-29T21:46:50.029Z,97.80
2018-04-29T21:49:16.675Z,97.80
2018-04-29T21:51:43.471Z,97.80
2018-04-29T21:54:10.210Z,97.80
2018-04-29T21:56:36.887Z,97.80
2018-04-29T21:59:03.486Z,97.80
2018-04-29T22:01:30.068Z,97.80
2018-04-29T22:03:56.667Z,97.70
2018-04-29T22:06:23.248Z,97.70
2018-04-29T22:08:49.878Z,97.70
2018-04-29T22:11:16.535Z,97.60
2018-04-29T22:13:43.880Z,97.60
2018-04-29T22:16:11.186Z,97.50
2018-04-29T22:18:37.791Z,97.50
2018-04-29T22:21:04.770Z,97.50
2018-04-29T22:23:31.419Z,97.50
2018-04-29T22:25:58.054Z,97.50
2018-04-29T22:28:24.626Z,97.40
2018-04-29T22:30:51.243Z,97.40
2018-04-29T22:33:17.819Z,97.60
2018-04-29T22:35:44.491Z,97.30
2018-04-29T22:38:11.097Z,97.30
2018-04-29T22:40:38.509Z,97.00
2018-04-29T22:43:05.216Z,97.00
2018-04-29T22:45:31.814Z,96.90
2018-04-29T22:47:59.139Z,96.60
2018-04-29T22:50:25.743Z,96.70
2018-04-29T22:52:52.374Z,96.50
2018-04-29T22:55:19.006Z,96.40
2018-04-29T22:57:48.586Z,96.20
2018-04-29T23:00:15.969Z,96.10
2018-04-29T23:02:43.472Z,96.00
2018-04-29T23:05:10.179Z,96.10
2018-04-29T23:07:37.554Z,95.90
2018-04-29T23:10:04.236Z,95.90
2018-04-29T23:12:31.677Z,95.90
2018-04-29T23:14:58.316Z,96.00
2018-04-29T23:17:24.998Z,96.00
2018-04-29T23:19:51.647Z,96.40
2018-04-29T23:22:19.111Z,96.10
2018-04-29T23:24:45.809Z,96.10
2018-04-29T23:27:13.433Z,96.10
2018-04-29T23:29:40.109Z,96.10
2018-04-29T23:32:06.754Z,96.10
2018-04-29T23:34:33.547Z,96.10
2018-04-29T23:37:00.357Z,96.10
2018-04-29T23:39:27.748Z,96.10
2018-04-29T23:41:54.394Z,96.20
2018-04-29T23:44:21.078Z,96.10
2018-04-29T23:46:47.731Z,96.10
2018-04-29T23:49:15.132Z,96.10
2018-04-29T23:51:41.795Z,96.10
2018-04-29T23:54:08.641Z,96.00
2018-04-29T23:56:35.281Z,96.00
2018-04-29T23:59:01.913Z,95.90
